• Join FlightAware (Why Join?)
  • Login
  • US Flag 
12:31AM EDT


 

Airport Tracker/Info


-or-


 

Live Flight TrackerFlight Track Log ✈ SWA385 ✈ 01-Nov-2013 ✈ KHOU - KPHX

Flight Track Log - Related Links

Times and Time Zones

All times are in EDT time to prevent confusion due to time zone crossing. See the SWA385 flight status page for this flight to view local times or setup timezone preferences in your user account.

Time Position Orientation Groundspeed Altitude Reporting Facility
EDT Latitude Longitude Course Direction KTS MPH feet Rate Location/Type
10:22AM 29.6306 -95.2608 34° Northeast 138 159 1,100  Level Houston Center
10:23AM 29.6561 -95.2408 34° Northeast 194 223 2,200 1,620 Climbing Houston Center
10:24AM 29.6686 -95.2678 298° West 214 246 3,100 2,100 Climbing Houston Center
10:24AM 29.6861 -95.3167 292° West 248 285 4,600 2,100 Climbing Houston Center
10:25AM 29.6931 -95.3364 292° West 235 270 5,300 3,060 Climbing Houston Center
10:25AM 29.7014 -95.3894 280° West 261 300 7,500 3,420 Climbing Houston Center
10:26AM 29.7078 -95.4153 286° West 252 290 8,900 3,060 Climbing Houston Center
10:26AM 29.7194 -95.4739 283° West 255 293 10,900 2,100 Climbing Houston Center
10:27AM 29.7244 -95.4961 285° West 259 298 11,100 1,920 Climbing Houston Center
10:28AM 29.7542 -95.5967 289° West 325 374 13,600 3,060 Climbing Houston Center
10:29AM 29.7900 -95.7214 288° West 340 391 17,500 3,180 Climbing Houston Center
10:30AM 29.8103 -95.8258 283° West 336 387 20,200 2,220 Climbing Houston Center
10:31AM 29.8328 -95.9347 283° West 348 400 22,100 1,860 Climbing Houston Center
10:32AM 29.8586 -96.0533 284° West 366 421 24,100 1,980 Climbing Houston Center
10:33AM 29.8831 -96.1689 284° West 372 428 26,200 1,800 Climbing Houston Center
10:34AM 29.9072 -96.2850 284° West 375 432 27,900 1,800 Climbing Houston Center
10:35AM 29.9386 -96.4269 284° West 383 441 30,000 1,800 Climbing Houston Center
10:36AM 29.9611 -96.5456 282° West 381 438 31,700 1,560 Climbing Houston Center
10:37AM 29.9864 -96.6603 284° West 375 432 33,300 1,380 Climbing Houston Center
10:38AM 30.0089 -96.7772 283° West 375 432 34,600 1,080 Climbing Houston Center
10:39AM 30.0344 -96.8931 284° West 376 433 35,600 960 Climbing Houston Center
10:40AM 30.0628 -97.0358 283° West 384 442 36,600 780 Climbing Houston Center
10:41AM 30.0875 -97.1567 283° West 388 447 37,300 660 Climbing Houston Center
10:42AM 30.1133 -97.2875 283° West 400 460 38,000 300 Climbing Houston Center
10:43AM 30.1400 -97.4156 284° West 405 466 38,000  Level Houston Center
10:44AM 30.1656 -97.5444 283° West 406 467 38,000  Level Houston Center
10:45AM 30.1906 -97.6722 283° West 403 464 38,000  Level Houston Center
10:46AM 30.2158 -97.7989 283° West 401 461 38,000  Level Houston Center
10:47AM 30.2450 -97.9447 283° West 402 463 38,000  Level Houston Center
10:48AM 30.2717 -98.0825 283° West 407 468 38,000  Level Houston Center
10:49AM 30.2972 -98.2119 283° West 414 476 38,000  Level Houston Center
10:51AM 30.3217 -98.3403 282° West 413 475 38,000  Level Houston Center
10:52AM 30.3456 -98.4711 282° West 411 473 38,000  Level Houston Center
10:53AM 30.3719 -98.6033 283° West 415 478 38,000  Level Houston Center
10:54AM 30.3958 -98.7333 282° West 411 473 38,000  Level Houston Center
10:55AM 30.4206 -98.8631 282° West 409 471 38,000  Level Houston Center
10:56AM 30.4503 -99.0158 283° West 410 472 38,000  Level Houston Center
10:57AM 30.4714 -99.1297 282° West 410 472 38,000  Level Houston Center
10:58AM 30.4958 -99.2581 282° West 409 471 38,000  Level Houston Center
10:59AM 30.5244 -99.4122 282° West 409 471 38,000  Level Houston Center
11:00AM 30.5481 -99.5414 282° West 411 473 38,000  Level Houston Center
11:01AM 30.5756 -99.6678 284° West 407 468 38,000  Level Houston Center
11:02AM 30.6036 -99.7953 284° West 411 473 38,000  Level Houston Center
11:03AM 30.6306 -99.9231 284° West 409 471 38,000  Level Houston Center
11:04AM 30.6636 -100.0772 284° West 413 475 38,000  Level Houston Center
11:05AM 30.6903 -100.2061 284° West 414 476 38,000  Level Houston Center
11:06AM 30.7172 -100.3353 284° West 415 478 38,000  Level Houston Center
11:07AM 30.7439 -100.4647 284° West 415 478 38,000  Level Houston Center
11:08AM 30.7719 -100.5931 284° West 414 476 38,000  Level Houston Center
11:09AM 30.8031 -100.7483 283° West 414 476 38,000  Level Houston Center
11:10AM 30.8297 -100.8781 283° West 413 475 38,000  Level Houston Center
11:11AM 30.8569 -101.0089 284° West 417 480 38,000  Level Houston Center
11:12AM 30.8833 -101.1392 283° West 417 480 38,000  Level Houston Center
11:13AM 30.9103 -101.2697 284° West 417 480 38,000  Level Houston Center
11:14AM 30.9411 -101.4278 283° West 419 482 38,000  Level Houston Center
11:15AM 30.9669 -101.5603 283° West 420 483 38,000  Level Houston Center
11:16AM 30.9950 -101.6931 284° West 420 483 38,000  Level Houston Center
11:17AM 31.0208 -101.8261 283° West 421 484 38,000  Level Houston Center
11:18AM 31.0472 -101.9578 283° West 419 482 38,000  Level Houston Center
11:19AM 31.0728 -102.0911 283° West 419 482 38,000 -60 Level Houston Center
11:21AM 31.0978 -102.2250 282° West 418 481 37,900  Descending Houston Center
11:22AM 31.1283 -102.3867 282° West 419 482 38,000 60 Climbing Houston Center
11:22AM 31.1408 -102.4464 284° West 416 479 38,000  Level Albuquerque Center
11:23AM 31.1694 -102.6008 282° West 413 475 38,000  Level Albuquerque Center
11:24AM 31.1950 -102.7333 283° West 415 478 38,000  Level Albuquerque Center
11:25AM 31.2206 -102.8664 283° West 417 480 38,000  Level Albuquerque Center
11:26AM 31.2444 -102.9981 282° West 417 480 38,000  Level Albuquerque Center
11:27AM 31.2689 -103.1297 282° West 416 479 38,000  Level Albuquerque Center
11:28AM 31.2992 -103.2889 283° West 417 480 38,000  Level Albuquerque Center
11:29AM 31.3228 -103.4203 282° West 415 478 38,000  Level Albuquerque Center
11:30AM 31.3478 -103.5539 282° West 419 482 38,000  Level Albuquerque Center
11:32AM 31.3703 -103.6850 281° West 415 478 38,000  Level Albuquerque Center
11:33AM 31.3967 -103.8331 282° West 415 478 38,000  Level Albuquerque Center
11:34AM 31.4217 -103.9650 283° West 416 479 38,000  Level Albuquerque Center
11:35AM 31.4461 -104.0967 282° West 416 479 38,000  Level Albuquerque Center
11:36AM 31.4700 -104.2278 282° West 415 478 38,000  Level Albuquerque Center
11:37AM 31.4931 -104.3594 282° West 415 478 38,000  Level Albuquerque Center
11:38AM 31.5206 -104.5186 281° West 417 480 38,000  Level Albuquerque Center
11:39AM 31.5447 -104.6514 282° West 419 482 38,000  Level Albuquerque Center
11:40AM 31.5681 -104.7850 282° West 421 484 38,000  Level Albuquerque Center
11:41AM 31.5903 -104.9161 281° West 416 479 38,000  Level Albuquerque Center
11:42AM 31.6128 -105.0497 281° West 419 482 38,000  Level Albuquerque Center
11:43AM 31.6358 -105.1808 282° West 415 478 38,000  Level Albuquerque Center
11:44AM 31.6622 -105.3419 281° West 421 484 38,000  Level Albuquerque Center
11:45AM 31.6839 -105.4794 281° West 428 493 38,000  Level Albuquerque Center
11:46AM 31.7072 -105.6136 282° West 425 489 38,000  Level Albuquerque Center
11:47AM 31.7303 -105.7508 281° West 428 493 38,000  Level Albuquerque Center
11:48AM 31.7522 -105.8869 281° West 428 493 38,000  Level Albuquerque Center
11:49AM 31.7792 -106.0494 281° West 425 489 38,000  Level Albuquerque Center
11:50AM 31.8006 -106.1825 281° West 419 482 38,000  Level Albuquerque Center
11:51AM 31.8231 -106.3156 281° West 417 480 38,000  Level Albuquerque Center
11:52AM 31.8450 -106.4492 281° West 417 480 38,000  Level Albuquerque Center
11:53AM 31.8664 -106.5814 281° West 417 480 38,000  Level Albuquerque Center
11:54AM 31.8928 -106.7411 281° West 415 478 38,000  Level Albuquerque Center
11:55AM 31.9139 -106.8758 280° West 416 479 38,000  Level Albuquerque Center
11:56AM 31.9356 -107.0117 281° West 418 481 38,000  Level Albuquerque Center
11:57AM 31.9564 -107.1494 280° West 423 487 38,000  Level Albuquerque Center
11:58AM 31.9775 -107.2875 280° West 426 490 38,000  Level Albuquerque Center
11:59AM 31.9986 -107.4250 280° West 426 490 38,000  Level Albuquerque Center
12:00PM 32.0200 -107.5622 280° West 425 489 38,000  Level Albuquerque Center
12:01PM 32.0456 -107.7281 280° West 427 491 38,000  Level Albuquerque Center
12:03PM 32.0656 -107.8661 280° West 427 491 38,000  Level Albuquerque Center
12:04PM 32.0864 -108.0047 280° West 428 493 38,000  Level Albuquerque Center
12:05PM 32.1069 -108.1397 280° West 423 487 38,000  Level Albuquerque Center
12:06PM 32.1278 -108.2778 280° West 425 489 38,000  Level Albuquerque Center
12:07PM 32.1469 -108.4147 279° West 424 488 38,000  Level Albuquerque Center
12:08PM 32.1706 -108.5717 280° West 424 488 38,000  Level Albuquerque Center
12:09PM 32.1897 -108.7094 279° West 424 488 38,000  Level Albuquerque Center
12:10PM 32.2092 -108.8475 279° West 425 489 38,000  Level Albuquerque Center
12:11PM 32.2014 -108.9878 266° West 431 496 38,000  Level Albuquerque Center
12:12PM 32.1908 -109.1286 265° West 429 494 38,000 -360 Level Albuquerque Center
12:13PM 32.1811 -109.2700 265° West 430 495 37,300 -900 Descending Albuquerque Center
12:14PM 32.1692 -109.4397 265° West 431 496 36,200 -1,020 Descending Albuquerque Center
12:15PM 32.2131 -109.5781 291° West 460 529 35,200 -960 Descending Albuquerque Center
12:16PM 32.2614 -109.7103 293° West 446 513 34,300 -600 Descending Albuquerque Center
12:17PM 32.3114 -109.8431 294° West 442 509 34,000 -180 Descending Albuquerque Center
12:18PM 32.3603 -109.9764 293° West 442 509 34,000 -900 Level Albuquerque Center
12:19PM 32.4131 -110.1139 294° West 454 522 32,200 -2,100 Descending Albuquerque Center
12:20PM 32.4731 -110.2753 294° West 449 517 29,700 -2,340 Descending Albuquerque Center
12:21PM 32.5131 -110.3844 294° West 436 502 27,400 -2,340 Descending Albuquerque Center
12:22PM 32.5669 -110.5314 294° West 411 473 24,900 -1,680 Descending Albuquerque Center
12:23PM 32.6156 -110.6444 297° West 391 450 24,000 -480 Descending Albuquerque Center
12:24PM 32.6747 -110.7514 303° West 387 445 24,000 -180 Level Albuquerque Center
12:25PM 32.7331 -110.8586 303° West 387 445 23,700 -1,140 Descending Albuquerque Center
12:26PM 32.7894 -110.9642 302° West 382 440 21,700 -1,980 Descending Albuquerque Center
12:27PM 32.8436 -111.0675 302° West 373 429 19,700 -1,800 Descending Albuquerque Center
12:28PM 32.9025 -111.1894 300° West 357 411 18,000 -1,620 Descending Albuquerque Center
12:29PM 32.9481 -111.2817 301° West 328 377 16,400 -1,500 Descending Albuquerque Center
12:30PM 32.9917 -111.3808 298° West 336 387 14,900 -1,380 Descending Albuquerque Center
12:31PM 33.0358 -111.4708 300° West 318 366 13,600 -1,440 Descending Albuquerque Center
12:33PM 33.0800 -111.5550 302° West 302 348 12,000 -780 Descending Albuquerque Center
12:34PM 33.1217 -111.6372 301° West 292 336 12,000 -480 Level Albuquerque Center
12:35PM 33.1614 -111.7167 301° West 281 323 11,100 -1,020 Descending Albuquerque Center
12:36PM 33.2094 -111.8114 301° West 278 320 10,000 -840 Descending Albuquerque Center
12:37PM 33.2494 -111.8906 301° West 278 320 9,400 -600 Descending Albuquerque Center
12:38PM 33.2850 -111.9600 302° West 252 290 8,800 -840 Descending Albuquerque Center
12:39PM 33.3189 -112.0261 302° West 235 270 7,700 -1,080 Descending Albuquerque Center
12:40PM 33.3433 -112.0969 292° West 240 276 6,600 -1,020 Descending Albuquerque Center
12:41PM 33.3431 -112.1756 270° West 237 273 5,600 -960 Descending Albuquerque Center
12:42PM 33.3983 -112.2033 337° Northwest 199 229 4,700 -1,020 Descending Albuquerque Center
12:43PM 33.4275 -112.1697 44° Northeast 165 190 3,500 -1,020 Descending Albuquerque Center
12:44PM 33.4286 -112.1186 88° East 157 181 2,600 -780 Descending Albuquerque Center
12:45PM 33.4292 -112.0739 89° East 140 161 1,900 -720 Descending Albuquerque Center
12:46PM 33.4292 -112.0286 90° East 136 157 1,200 -720 Descending Albuquerque Center